San Francisco International Airport
KSFO : now visible

Airfield :











YOU CAN JOIN US ON...

 
LOGIN :

Register | Disclaimer

   EN    FR    IT 

 









Legend :    VFR   Marginal VFR   IFR   Intensive IFR   Very Intensive IFR
Visi :
Ceiling :
>= 8 km
>= 3000ft
5 to 8 km
1000 to 3000 ft
1500m to 5 km
500 to 1000 ft
800 to 1500m
200 to 500 ft
< 800m
< 200 ft
Symbols :   Thunderstorms  Fog  Heavy snow  Heavy precipitations  Wind > 20 kt






- Airport Elevation : 13 ft
- IATA code : SFO


KSFO - San Francisco International

CURRENT METAR :
  • 291256Z 22004KT 8SM CLR 08/06 A3028 RMK AO2 SLP254 T00830061

EXPIRED METARs :
  • 291156Z 00000KT 8SM CLR 10/07 A3028 RMK AO2 SLP253 70003 T01000072 10122 20094 58009
  • 291056Z 00000KT 8SM CLR 10/08 A3030 RMK AO2 SLP261 T01000078

TAF KSFO
Valid from the 29 at 12:00 until the 30 at 18:00 UTC


291128Z 2912/3018 28006KT P6SM FEW015 BKN250
FM292000 31010KT P6SM FEW030 BKN250
FM300600 29005KT P6SM FEW030 SCT250



MET'MAP, your aeronautical weather chart ! - Copyright ORBIFLY December 2007 - Disclaimer

ORBIFLY MET'MAP TEAM :

Programming & Development : Alexandra Zaïnal
Concept & original design : Baudouin d'Aumeries
Assistance for programming : Marc-Olivier Méhu
Technical & hardware support : Manuel Goepfert

Contact : metmap@orbifly.com




SOURCES & CREDITS :

   NOAA       Earth
Advisory